sensor_id;sensor_type;location;lat;lon;timestamp;pressure;altitude;pressure_sealevel;temperature;humidity
56719;BME280;42597;40.636;0.278;2023-05-02T00:01:04;97346.59;;;22.54;38.40
56719;BME280;42597;40.636;0.278;2023-05-02T00:03:32;97344.91;;;22.13;38.09
56719;BME280;42597;40.636;0.278;2023-05-02T00:05:59;97352.91;;;22.51;37.71
56719;BME280;42597;40.636;0.278;2023-05-02T00:08:25;97349.81;;;22.26;36.34
56719;BME280;42597;40.636;0.278;2023-05-02T00:10:51;97353.00;;;21.97;34.86
56719;BME280;42597;40.636;0.278;2023-05-02T00:13:16;97360.72;;;22.06;30.37
56719;BME280;42597;40.636;0.278;2023-05-02T00:15:42;97345.41;;;22.05;34.09
56719;BME280;42597;40.636;0.278;2023-05-02T00:18:07;97348.41;;;21.87;35.46
56719;BME280;42597;40.636;0.278;2023-05-02T00:20:33;97351.38;;;21.73;33.90
56719;BME280;42597;40.636;0.278;2023-05-02T00:22:58;97333.78;;;22.21;35.07
56719;BME280;42597;40.636;0.278;2023-05-02T00:25:24;97336.69;;;21.56;26.58
56719;BME280;42597;40.636;0.278;2023-05-02T00:27:50;97332.38;;;21.82;30.62
56719;BME280;42597;40.636;0.278;2023-05-02T00:30:16;97335.22;;;22.29;36.63
56719;BME280;42597;40.636;0.278;2023-05-02T00:32:43;97333.31;;;22.26;35.95
56719;BME280;42597;40.636;0.278;2023-05-02T00:35:08;97337.88;;;22.09;37.68
56719;BME280;42597;40.636;0.278;2023-05-02T00:37:34;97342.16;;;22.37;35.70
56719;BME280;42597;40.636;0.278;2023-05-02T00:40:01;97346.97;;;22.33;36.55
56719;BME280;42597;40.636;0.278;2023-05-02T00:42:27;97336.94;;;22.42;35.09
56719;BME280;42597;40.636;0.278;2023-05-02T00:44:55;97346.56;;;22.07;36.47
56719;BME280;42597;40.636;0.278;2023-05-02T00:47:21;97340.00;;;22.25;36.35
56719;BME280;42597;40.636;0.278;2023-05-02T00:49:46;97326.09;;;22.08;35.57
56719;BME280;42597;40.636;0.278;2023-05-02T00:52:13;97321.69;;;22.38;38.42
56719;BME280;42597;40.636;0.278;2023-05-02T00:54:39;97316.56;;;22.16;37.81
56719;BME280;42597;40.636;0.278;2023-05-02T00:57:05;97316.25;;;22.34;37.61
56719;BME280;42597;40.636;0.278;2023-05-02T00:59:33;97320.75;;;22.48;38.52
56719;BME280;42597;40.636;0.278;2023-05-02T01:02:30;97324.75;;;22.20;34.64
56719;BME280;42597;40.636;0.278;2023-05-02T01:05:09;97330.88;;;22.04;35.41
56719;BME280;42597;40.636;0.278;2023-05-02T01:13:12;97316.59;;;22.13;31.88
56719;BME280;42597;40.636;0.278;2023-05-02T01:15:39;97319.03;;;22.07;35.34
56719;BME280;42597;40.636;0.278;2023-05-02T01:18:08;97313.66;;;22.47;38.80
56719;BME280;42597;40.636;0.278;2023-05-02T01:20:39;97310.19;;;22.43;37.21
56719;BME280;42597;40.636;0.278;2023-05-02T01:26:30;97303.00;;;22.73;38.67
56719;BME280;42597;40.636;0.278;2023-05-02T01:29:05;97300.78;;;22.64;38.01
56719;BME280;42597;40.636;0.278;2023-05-02T01:31:38;97297.25;;;22.63;38.44
56719;BME280;42597;40.636;0.278;2023-05-02T01:34:08;97305.66;;;22.33;34.99
56719;BME280;42597;40.636;0.278;2023-05-02T01:36:35;97300.34;;;22.65;38.54
56719;BME280;42597;40.636;0.278;2023-05-02T01:39:03;97304.19;;;22.72;38.25
56719;BME280;42597;40.636;0.278;2023-05-02T01:41:32;97301.44;;;22.72;38.71
56719;BME280;42597;40.636;0.278;2023-05-02T01:44:01;97298.31;;;22.70;38.37
56719;BME280;42597;40.636;0.278;2023-05-02T01:46:31;97300.69;;;22.48;37.51
56719;BME280;42597;40.636;0.278;2023-05-02T01:49:01;97304.09;;;22.55;38.51
56719;BME280;42597;40.636;0.278;2023-05-02T01:51:31;97294.50;;;22.63;37.64
56719;BME280;42597;40.636;0.278;2023-05-02T01:54:01;97294.84;;;22.65;35.99
56719;BME280;42597;40.636;0.278;2023-05-02T01:56:33;97292.72;;;22.53;37.95
56719;BME280;42597;40.636;0.278;2023-05-02T01:59:01;97301.94;;;22.43;37.69
56719;BME280;42597;40.636;0.278;2023-05-02T02:01:28;97304.88;;;22.56;36.61
56719;BME280;42597;40.636;0.278;2023-05-02T02:03:56;97303.25;;;22.58;37.40
56719;BME280;42597;40.636;0.278;2023-05-02T02:06:23;97313.25;;;22.49;38.08
56719;BME280;42597;40.636;0.278;2023-05-02T02:08:50;97311.03;;;22.63;38.51
56719;BME280;42597;40.636;0.278;2023-05-02T02:11:25;97314.78;;;22.73;38.23
56719;BME280;42597;40.636;0.278;2023-05-02T02:14:00;97314.84;;;22.70;38.26
56719;BME280;42597;40.636;0.278;2023-05-02T02:16:30;97321.13;;;22.70;38.21
56719;BME280;42597;40.636;0.278;2023-05-02T02:18:58;97319.75;;;22.58;38.23
56719;BME280;42597;40.636;0.278;2023-05-02T02:21:29;97321.41;;;22.32;37.17
56719;BME280;42597;40.636;0.278;2023-05-02T02:24:01;97315.03;;;22.12;37.17
56719;BME280;42597;40.636;0.278;2023-05-02T02:26:28;97322.50;;;22.58;38.09
56719;BME280;42597;40.636;0.278;2023-05-02T02:28:55;97323.53;;;22.68;37.94
56719;BME280;42597;40.636;0.278;2023-05-02T02:31:20;97321.19;;;22.66;38.16
56719;BME280;42597;40.636;0.278;2023-05-02T02:33:46;97325.56;;;21.90;36.24
56719;BME280;42597;40.636;0.278;2023-05-02T02:39:09;97327.56;;;22.16;37.28
56719;BME280;42597;40.636;0.278;2023-05-02T02:41:54;97328.94;;;22.28;37.04
56719;BME280;42597;40.636;0.278;2023-05-02T02:44:35;97327.25;;;22.58;37.47
56719;BME280;42597;40.636;0.278;2023-05-02T02:50:13;97313.81;;;22.40;37.38
56719;BME280;42597;40.636;0.278;2023-05-02T02:55:25;97306.00;;;22.58;38.17
56719;BME280;42597;40.636;0.278;2023-05-02T02:57:59;97323.88;;;22.00;34.16
56719;BME280;42597;40.636;0.278;2023-05-02T03:00:27;97322.66;;;22.28;36.86
56719;BME280;42597;40.636;0.278;2023-05-02T03:02:54;97326.59;;;22.27;37.69
56719;BME280;42597;40.636;0.278;2023-05-02T03:05:21;97310.69;;;22.14;36.87
56719;BME280;42597;40.636;0.278;2023-05-02T03:07:47;97324.44;;;22.14;38.07
56719;BME280;42597;40.636;0.278;2023-05-02T03:10:13;97320.16;;;22.37;37.34
56719;BME280;42597;40.636;0.278;2023-05-02T03:12:39;97329.13;;;22.41;37.45
56719;BME280;42597;40.636;0.278;2023-05-02T03:17:39;97321.56;;;22.45;37.80
56719;BME280;42597;40.636;0.278;2023-05-02T03:20:05;97316.13;;;21.37;28.42
56719;BME280;42597;40.636;0.278;2023-05-02T03:22:31;97319.09;;;21.77;35.52
56719;BME280;42597;40.636;0.278;2023-05-02T03:24:57;97326.97;;;21.75;35.93
56719;BME280;42597;40.636;0.278;2023-05-02T03:27:22;97309.41;;;21.68;37.74
56719;BME280;42597;40.636;0.278;2023-05-02T03:29:48;97312.50;;;21.71;31.23
56719;BME280;42597;40.636;0.278;2023-05-02T03:32:13;97311.88;;;22.13;36.62
56719;BME280;42597;40.636;0.278;2023-05-02T03:34:39;97315.09;;;22.08;35.51
56719;BME280;42597;40.636;0.278;2023-05-02T03:37:05;97308.25;;;21.93;32.44
56719;BME280;42597;40.636;0.278;2023-05-02T03:39:31;97310.28;;;21.62;37.11
56719;BME280;42597;40.636;0.278;2023-05-02T03:41:57;97297.84;;;22.04;36.53
56719;BME280;42597;40.636;0.278;2023-05-02T03:44:22;97314.38;;;22.04;37.30
56719;BME280;42597;40.636;0.278;2023-05-02T03:46:48;97306.06;;;21.81;35.39
56719;BME280;42597;40.636;0.278;2023-05-02T03:49:13;97308.25;;;21.93;33.84
56719;BME280;42597;40.636;0.278;2023-05-02T03:51:39;97293.91;;;22.05;36.98
56719;BME280;42597;40.636;0.278;2023-05-02T03:54:04;97315.09;;;21.54;30.17
56719;BME280;42597;40.636;0.278;2023-05-02T03:56:30;97313.22;;;21.75;37.17
56719;BME280;42597;40.636;0.278;2023-05-02T03:58:56;97303.84;;;21.99;37.47
56719;BME280;42597;40.636;0.278;2023-05-02T04:01:22;97306.75;;;22.15;36.86
56719;BME280;42597;40.636;0.278;2023-05-02T04:03:48;97299.63;;;22.18;37.66
56719;BME280;42597;40.636;0.278;2023-05-02T04:06:14;97300.22;;;22.02;35.58
56719;BME280;42597;40.636;0.278;2023-05-02T04:11:05;97287.41;;;22.19;37.75
56719;BME280;42597;40.636;0.278;2023-05-02T04:13:31;97293.28;;;22.21;37.30
56719;BME280;42597;40.636;0.278;2023-05-02T04:15:57;97288.19;;;22.20;37.62
56719;BME280;42597;40.636;0.278;2023-05-02T04:18:22;97285.75;;;21.13;30.50
56719;BME280;42597;40.636;0.278;2023-05-02T04:20:49;97295.94;;;21.16;36.46
56719;BME280;42597;40.636;0.278;2023-05-02T04:23:14;97289.28;;;21.99;37.63
56719;BME280;42597;40.636;0.278;2023-05-02T04:25:40;97296.09;;;22.17;37.51
56719;BME280;42597;40.636;0.278;2023-05-02T04:28:05;97293.09;;;21.54;35.41
56719;BME280;42597;40.636;0.278;2023-05-02T04:30:31;97292.13;;;21.95;36.78
56719;BME280;42597;40.636;0.278;2023-05-02T04:32:57;97284.69;;;21.38;36.04
56719;BME280;42597;40.636;0.278;2023-05-02T04:35:22;97292.13;;;21.95;37.69
56719;BME280;42597;40.636;0.278;2023-05-02T04:37:48;97292.19;;;21.03;34.78
56719;BME280;42597;40.636;0.278;2023-05-02T04:40:14;97295.06;;;21.81;35.07
56719;BME280;42597;40.636;0.278;2023-05-02T04:42:39;97293.47;;;21.83;34.48
56719;BME280;42597;40.636;0.278;2023-05-02T04:45:05;97294.28;;;20.54;23.80
56719;BME280;42597;40.636;0.278;2023-05-02T04:47:31;97290.03;;;21.49;35.31
56719;BME280;42597;40.636;0.278;2023-05-02T04:49:56;97294.94;;;21.34;29.46
56719;BME280;42597;40.636;0.278;2023-05-02T04:52:22;97290.34;;;21.81;36.85
56719;BME280;42597;40.636;0.278;2023-05-02T04:54:48;97293.47;;;21.83;37.29
56719;BME280;42597;40.636;0.278;2023-05-02T04:57:13;97293.66;;;21.11;34.94
56719;BME280;42597;40.636;0.278;2023-05-02T04:59:39;97297.31;;;20.67;36.05
56719;BME280;42597;40.636;0.278;2023-05-02T05:02:04;97299.38;;;20.90;36.21
56719;BME280;42597;40.636;0.278;2023-05-02T05:04:32;97300.78;;;21.05;35.00
56719;BME280;42597;40.636;0.278;2023-05-02T05:06:57;97309.34;;;21.11;33.48
56719;BME280;42597;40.636;0.278;2023-05-02T05:09:23;97303.13;;;21.68;36.24
56719;BME280;42597;40.636;0.278;2023-05-02T05:11:49;97308.66;;;21.03;31.31
56719;BME280;42597;40.636;0.278;2023-05-02T05:14:14;97301.22;;;21.34;36.42
56719;BME280;42597;40.636;0.278;2023-05-02T05:16:40;97297.72;;;21.61;37.00
56719;BME280;42597;40.636;0.278;2023-05-02T05:19:06;97302.69;;;21.69;35.95
56719;BME280;42597;40.636;0.278;2023-05-02T05:21:31;97295.91;;;20.86;29.66
56719;BME280;42597;40.636;0.278;2023-05-02T05:23:57;97296.88;;;21.37;35.99
56719;BME280;42597;40.636;0.278;2023-05-02T05:26:23;97299.94;;;21.69;37.02
56719;BME280;42597;40.636;0.278;2023-05-02T05:28:49;97318.63;;;21.82;36.88
56719;BME280;42597;40.636;0.278;2023-05-02T05:31:15;97313.03;;;21.89;36.97
56719;BME280;42597;40.636;0.278;2023-05-02T05:33:41;97312.94;;;21.38;31.02
56719;BME280;42597;40.636;0.278;2023-05-02T05:36:09;97313.19;;;21.17;37.17
56719;BME280;42597;40.636;0.278;2023-05-02T05:38:35;97312.69;;;20.95;31.50
56719;BME280;42597;40.636;0.278;2023-05-02T05:41:01;97312.34;;;21.54;33.53
56719;BME280;42597;40.636;0.278;2023-05-02T05:43:27;97330.50;;;21.48;35.78
56719;BME280;42597;40.636;0.278;2023-05-02T05:45:54;97325.50;;;21.39;34.96
56719;BME280;42597;40.636;0.278;2023-05-02T05:48:20;97331.44;;;21.65;36.78
56719;BME280;42597;40.636;0.278;2023-05-02T05:50:46;97325.75;;;21.79;37.13
56719;BME280;42597;40.636;0.278;2023-05-02T05:53:12;97326.28;;;21.94;36.20
56719;BME280;42597;40.636;0.278;2023-05-02T05:55:38;97335.66;;;22.00;35.83
56719;BME280;42597;40.636;0.278;2023-05-02T05:58:04;97326.81;;;22.12;36.61
56719;BME280;42597;40.636;0.278;2023-05-02T06:00:33;97322.97;;;22.06;36.50
56719;BME280;42597;40.636;0.278;2023-05-02T06:02:59;97319.50;;;21.48;36.36
56719;BME280;42597;40.636;0.278;2023-05-02T06:05:25;97324.78;;;21.62;35.83
56719;BME280;42597;40.636;0.278;2023-05-02T06:07:51;97328.28;;;21.93;35.68
56719;BME280;42597;40.636;0.278;2023-05-02T06:10:16;97327.41;;;22.00;36.76
56719;BME280;42597;40.636;0.278;2023-05-02T06:12:42;97324.75;;;21.93;36.75
56719;BME280;42597;40.636;0.278;2023-05-02T06:15:07;97332.06;;;21.76;36.93
56719;BME280;42597;40.636;0.278;2023-05-02T06:17:33;97332.69;;;21.26;36.86
56719;BME280;42597;40.636;0.278;2023-05-02T06:19:59;97333.25;;;22.02;36.17
56719;BME280;42597;40.636;0.278;2023-05-02T06:22:24;97340.53;;;21.89;31.13
56719;BME280;42597;40.636;0.278;2023-05-02T06:24:50;97341.75;;;20.03;33.53
56719;BME280;42597;40.636;0.278;2023-05-02T06:27:15;97347.09;;;21.07;32.72
56719;BME280;42597;40.636;0.278;2023-05-02T06:29:41;97336.09;;;21.41;35.06
56719;BME280;42597;40.636;0.278;2023-05-02T06:32:07;97329.84;;;21.67;35.05
56719;BME280;42597;40.636;0.278;2023-05-02T06:34:32;97336.56;;;21.90;35.47
56719;BME280;42597;40.636;0.278;2023-05-02T06:36:58;97340.44;;;21.96;35.24
56719;BME280;42597;40.636;0.278;2023-05-02T06:39:24;97333.63;;;22.04;35.44
56719;BME280;42597;40.636;0.278;2023-05-02T06:41:50;97336.78;;;22.30;35.32
56719;BME280;42597;40.636;0.278;2023-05-02T06:44:15;97340.31;;;22.30;35.51
56719;BME280;42597;40.636;0.278;2023-05-02T06:46:41;97331.88;;;22.17;34.76
56719;BME280;42597;40.636;0.278;2023-05-02T06:49:07;97339.59;;;21.99;35.80
56719;BME280;42597;40.636;0.278;2023-05-02T06:51:33;97330.34;;;21.86;34.98
56719;BME280;42597;40.636;0.278;2023-05-02T06:53:58;97339.97;;;20.75;29.16
56719;BME280;42597;40.636;0.278;2023-05-02T06:56:24;97343.25;;;21.35;35.07
56719;BME280;42597;40.636;0.278;2023-05-02T06:58:50;97344.88;;;21.59;36.16
56719;BME280;42597;40.636;0.278;2023-05-02T07:01:16;97356.13;;;21.99;35.90
56719;BME280;42597;40.636;0.278;2023-05-02T07:03:42;97362.97;;;22.14;35.81
56719;BME280;42597;40.636;0.278;2023-05-02T07:06:07;97359.22;;;22.01;35.08
56719;BME280;42597;40.636;0.278;2023-05-02T07:08:33;97351.34;;;20.74;28.56
56719;BME280;42597;40.636;0.278;2023-05-02T07:11:00;97350.66;;;21.38;35.89
56719;BME280;42597;40.636;0.278;2023-05-02T07:13:26;97355.53;;;22.11;35.17
56719;BME280;42597;40.636;0.278;2023-05-02T07:15:52;97362.22;;;22.10;35.07
56719;BME280;42597;40.636;0.278;2023-05-02T07:18:18;97350.31;;;22.21;35.99
56719;BME280;42597;40.636;0.278;2023-05-02T07:20:43;97352.34;;;22.16;36.05
56719;BME280;42597;40.636;0.278;2023-05-02T07:23:09;97355.09;;;22.16;34.91
56719;BME280;42597;40.636;0.278;2023-05-02T07:25:35;97354.69;;;21.60;32.30
56719;BME280;42597;40.636;0.278;2023-05-02T07:28:01;97360.41;;;21.73;35.04
56719;BME280;42597;40.636;0.278;2023-05-02T07:30:27;97365.81;;;22.07;35.58
56719;BME280;42597;40.636;0.278;2023-05-02T07:32:52;97370.06;;;22.15;36.04
56719;BME280;42597;40.636;0.278;2023-05-02T07:35:18;97357.97;;;21.79;35.69
56719;BME280;42597;40.636;0.278;2023-05-02T07:37:43;97355.22;;;22.06;36.31
56719;BME280;42597;40.636;0.278;2023-05-02T07:40:09;97353.78;;;22.25;35.26
56719;BME280;42597;40.636;0.278;2023-05-02T07:42:35;97352.47;;;22.33;35.75
56719;BME280;42597;40.636;0.278;2023-05-02T07:45:01;97347.78;;;22.30;35.48
56719;BME280;42597;40.636;0.278;2023-05-02T07:47:27;97349.22;;;22.38;35.09
56719;BME280;42597;40.636;0.278;2023-05-02T07:49:54;97350.44;;;22.37;36.00
56719;BME280;42597;40.636;0.278;2023-05-02T07:52:20;97346.97;;;22.33;35.80
56719;BME280;42597;40.636;0.278;2023-05-02T07:54:49;97355.28;;;22.53;35.00
56719;BME280;42597;40.636;0.278;2023-05-02T07:57:16;97353.53;;;22.62;35.09
56719;BME280;42597;40.636;0.278;2023-05-02T07:59:41;97344.97;;;22.57;35.80
56719;BME280;42597;40.636;0.278;2023-05-02T08:02:07;97350.31;;;22.67;34.67
56719;BME280;42597;40.636;0.278;2023-05-02T08:04:33;97346.41;;;22.65;35.56
56719;BME280;42597;40.636;0.278;2023-05-02T08:06:58;97349.22;;;22.61;35.07
56719;BME280;42597;40.636;0.278;2023-05-02T08:09:25;97351.19;;;22.61;34.76
56719;BME280;42597;40.636;0.278;2023-05-02T08:11:51;97337.72;;;22.66;35.41
56719;BME280;42597;40.636;0.278;2023-05-02T08:14:16;97347.41;;;22.75;34.26
56719;BME280;42597;40.636;0.278;2023-05-02T08:16:42;97351.19;;;22.10;29.39
56719;BME280;42597;40.636;0.278;2023-05-02T08:19:08;97352.63;;;20.62;25.80
56719;BME280;42597;40.636;0.278;2023-05-02T08:21:34;97341.75;;;20.92;26.30
56719;BME280;42597;40.636;0.278;2023-05-02T08:23:59;97347.72;;;21.18;28.48
56719;BME280;42597;40.636;0.278;2023-05-02T08:26:26;97353.88;;;20.95;24.72
56719;BME280;42597;40.636;0.278;2023-05-02T08:28:53;97347.31;;;20.85;23.14
56719;BME280;42597;40.636;0.278;2023-05-02T08:31:19;97350.03;;;21.23;25.13
56719;BME280;42597;40.636;0.278;2023-05-02T08:33:45;97359.78;;;21.28;23.40
56719;BME280;42597;40.636;0.278;2023-05-02T08:36:15;97360.22;;;21.23;23.90
56719;BME280;42597;40.636;0.278;2023-05-02T08:38:41;97358.22;;;20.92;22.67
56719;BME280;42597;40.636;0.278;2023-05-02T08:41:15;97348.28;;;21.40;24.99
56719;BME280;42597;40.636;0.278;2023-05-02T08:43:42;97356.06;;;21.76;23.20
56719;BME280;42597;40.636;0.278;2023-05-02T08:46:09;97351.38;;;22.00;23.96
56719;BME280;42597;40.636;0.278;2023-05-02T08:48:36;97369.19;;;22.18;28.26
56719;BME280;42597;40.636;0.278;2023-05-02T08:51:03;97367.31;;;21.85;22.63
56719;BME280;42597;40.636;0.278;2023-05-02T08:53:39;97369.41;;;22.04;28.59
56719;BME280;42597;40.636;0.278;2023-05-02T08:56:09;97362.69;;;22.32;28.34
56719;BME280;42597;40.636;0.278;2023-05-02T08:58:36;97363.72;;;22.65;32.73
56719;BME280;42597;40.636;0.278;2023-05-02T09:01:09;97373.78;;;22.76;32.37
56719;BME280;42597;40.636;0.278;2023-05-02T09:03:36;97375.78;;;22.25;23.16
56719;BME280;42597;40.636;0.278;2023-05-02T09:08:39;97380.06;;;21.99;21.09
56719;BME280;42597;40.636;0.278;2023-05-02T09:11:06;97379.97;;;21.79;20.45
56719;BME280;42597;40.636;0.278;2023-05-02T09:13:49;97380.34;;;22.08;21.36
56719;BME280;42597;40.636;0.278;2023-05-02T09:16:18;97378.91;;;22.00;21.28
56719;BME280;42597;40.636;0.278;2023-05-02T09:18:52;97380.22;;;22.42;21.08
56719;BME280;42597;40.636;0.278;2023-05-02T09:23:55;97380.94;;;22.70;21.65
56719;BME280;42597;40.636;0.278;2023-05-02T09:26:25;97386.50;;;22.89;25.19
56719;BME280;42597;40.636;0.278;2023-05-02T09:28:54;97384.53;;;22.43;20.56
56719;BME280;42597;40.636;0.278;2023-05-02T09:31:29;97373.06;;;22.72;22.40
56719;BME280;42597;40.636;0.278;2023-05-02T09:34:10;97382.56;;;22.67;20.69
56719;BME280;42597;40.636;0.278;2023-05-02T09:36:54;97385.09;;;22.58;21.14
56719;BME280;42597;40.636;0.278;2023-05-02T09:39:24;97390.31;;;22.76;22.04
56719;BME280;42597;40.636;0.278;2023-05-02T09:41:51;97392.94;;;22.59;19.75
56719;BME280;42597;40.636;0.278;2023-05-02T09:44:18;97390.66;;;22.54;20.13
56719;BME280;42597;40.636;0.278;2023-05-02T09:49:14;97394.38;;;22.44;20.42
56719;BME280;42597;40.636;0.278;2023-05-02T09:51:43;97397.97;;;22.64;21.04
56719;BME280;42597;40.636;0.278;2023-05-02T09:54:09;97394.00;;;22.65;20.66
56719;BME280;42597;40.636;0.278;2023-05-02T09:56:53;97405.13;;;22.35;20.52
56719;BME280;42597;40.636;0.278;2023-05-02T09:59:22;97405.44;;;22.13;20.43
56719;BME280;42597;40.636;0.278;2023-05-02T10:01:58;97401.00;;;22.47;20.17
56719;BME280;42597;40.636;0.278;2023-05-02T10:04:25;97410.94;;;22.13;20.56
56719;BME280;42597;40.636;0.278;2023-05-02T10:06:53;97418.53;;;21.75;20.41
56719;BME280;42597;40.636;0.278;2023-05-02T10:09:19;97399.88;;;22.67;21.06
56719;BME280;42597;40.636;0.278;2023-05-02T10:11:46;97412.88;;;22.90;21.34
56719;BME280;42597;40.636;0.278;2023-05-02T10:14:15;97410.84;;;22.48;20.32
56719;BME280;42597;40.636;0.278;2023-05-02T10:17:15;97408.97;;;22.64;20.52
56719;BME280;42597;40.636;0.278;2023-05-02T10:20:04;97401.53;;;23.08;20.55
56719;BME280;42597;40.636;0.278;2023-05-02T10:22:32;97410.69;;;22.78;20.03
56719;BME280;42597;40.636;0.278;2023-05-02T10:24:58;97398.41;;;22.83;19.95
56719;BME280;42597;40.636;0.278;2023-05-02T10:27:26;97395.94;;;22.69;19.96
56719;BME280;42597;40.636;0.278;2023-05-02T10:29:54;97402.19;;;23.16;20.70
56719;BME280;42597;40.636;0.278;2023-05-02T10:32:22;97404.13;;;22.49;20.50
56719;BME280;42597;40.636;0.278;2023-05-02T10:34:53;97408.56;;;22.66;19.47
56719;BME280;42597;40.636;0.278;2023-05-02T10:37:25;97403.47;;;22.64;19.89
56719;BME280;42597;40.636;0.278;2023-05-02T10:39:51;97392.41;;;23.31;25.29
56719;BME280;42597;40.636;0.278;2023-05-02T10:42:19;97399.00;;;23.18;20.71
56719;BME280;42597;40.636;0.278;2023-05-02T10:44:45;97401.84;;;22.90;20.01
56719;BME280;42597;40.636;0.278;2023-05-02T10:47:24;97391.34;;;23.05;19.79
56719;BME280;42597;40.636;0.278;2023-05-02T10:49:58;97399.63;;;22.82;19.65
56719;BME280;42597;40.636;0.278;2023-05-02T10:52:37;97394.81;;;22.86;19.81
56719;BME280;42597;40.636;0.278;2023-05-02T10:55:23;97385.34;;;23.50;21.43
56719;BME280;42597;40.636;0.278;2023-05-02T11:00:32;97398.41;;;23.06;19.28
56719;BME280;42597;40.636;0.278;2023-05-02T11:02:58;97393.28;;;22.85;19.12
56719;BME280;42597;40.636;0.278;2023-05-02T11:05:25;97386.06;;;23.14;19.43
56719;BME280;42597;40.636;0.278;2023-05-02T11:08:28;97379.00;;;23.73;20.34
56719;BME280;42597;40.636;0.278;2023-05-02T11:10:54;97367.34;;;23.66;19.76
56719;BME280;42597;40.636;0.278;2023-05-02T11:13:48;97376.88;;;23.21;19.01
56719;BME280;42597;40.636;0.278;2023-05-02T11:16:15;97366.47;;;23.49;19.26
56719;BME280;42597;40.636;0.278;2023-05-02T11:18:59;97369.66;;;23.27;18.83
56719;BME280;42597;40.636;0.278;2023-05-02T11:21:29;97366.28;;;23.20;18.78
56719;BME280;42597;40.636;0.278;2023-05-02T11:29:54;97363.91;;;23.78;20.03
56719;BME280;42597;40.636;0.278;2023-05-02T11:32:19;97369.06;;;23.76;19.12
56719;BME280;42597;40.636;0.278;2023-05-02T11:34:47;97364.34;;;23.56;18.54
56719;BME280;42597;40.636;0.278;2023-05-02T11:37:15;97364.34;;;23.56;18.55
56719;BME280;42597;40.636;0.278;2023-05-02T11:39:41;97357.78;;;23.70;19.95
56719;BME280;42597;40.636;0.278;2023-05-02T11:42:07;97356.16;;;23.73;21.51
56719;BME280;42597;40.636;0.278;2023-05-02T11:44:33;97350.28;;;23.87;22.31
56719;BME280;42597;40.636;0.278;2023-05-02T11:46:59;97354.94;;;23.74;23.34
56719;BME280;42597;40.636;0.278;2023-05-02T11:49:25;97336.69;;;23.96;23.44
56719;BME280;42597;40.636;0.278;2023-05-02T11:51:51;97343.94;;;23.90;24.48
56719;BME280;42597;40.636;0.278;2023-05-02T11:54:20;97347.44;;;23.74;25.54
56719;BME280;42597;40.636;0.278;2023-05-02T11:56:49;97336.69;;;23.96;25.62
56719;BME280;42597;40.636;0.278;2023-05-02T11:59:15;97337.28;;;24.04;25.75
56719;BME280;42597;40.636;0.278;2023-05-02T12:01:48;97337.88;;;23.79;26.48
56719;BME280;42597;40.636;0.278;2023-05-02T12:04:14;97348.22;;;23.75;27.22
56719;BME280;42597;40.636;0.278;2023-05-02T12:06:53;97341.31;;;23.83;26.47
56719;BME280;42597;40.636;0.278;2023-05-02T12:09:19;97342.53;;;23.82;26.58
56719;BME280;42597;40.636;0.278;2023-05-02T12:11:51;97342.13;;;23.63;25.68
56719;BME280;42597;40.636;0.278;2023-05-02T12:14:16;97331.34;;;23.89;26.96
56719;BME280;42597;40.636;0.278;2023-05-02T12:16:42;97336.25;;;23.81;27.18
56719;BME280;42597;40.636;0.278;2023-05-02T12:19:08;97332.34;;;23.79;28.34
56719;BME280;42597;40.636;0.278;2023-05-02T12:21:34;97343.59;;;23.88;29.66
56719;BME280;42597;40.636;0.278;2023-05-02T12:24:00;97347.94;;;23.49;28.79
56719;BME280;42597;40.636;0.278;2023-05-02T12:26:26;97346.09;;;23.62;29.09
56719;BME280;42597;40.636;0.278;2023-05-02T12:28:57;97339.78;;;23.82;29.39
56719;BME280;42597;40.636;0.278;2023-05-02T12:31:23;97340.25;;;23.40;29.42
56719;BME280;42597;40.636;0.278;2023-05-02T12:33:50;97355.84;;;23.47;29.01
56719;BME280;42597;40.636;0.278;2023-05-02T12:36:19;97354.44;;;22.99;29.54
56719;BME280;42597;40.636;0.278;2023-05-02T12:38:52;97359.25;;;22.95;28.56
56719;BME280;42597;40.636;0.278;2023-05-02T12:41:35;97347.63;;;23.63;28.91
56719;BME280;42597;40.636;0.278;2023-05-02T12:44:02;97351.66;;;23.59;27.62
56719;BME280;42597;40.636;0.278;2023-05-02T12:46:28;97371.50;;;23.14;28.55
56719;BME280;42597;40.636;0.278;2023-05-02T12:49:06;97371.31;;;23.25;28.69
56719;BME280;42597;40.636;0.278;2023-05-02T12:51:37;97363.38;;;23.27;29.28
56719;BME280;42597;40.636;0.278;2023-05-02T12:54:04;97374.97;;;23.38;29.11
56719;BME280;42597;40.636;0.278;2023-05-02T12:56:30;97382.91;;;23.36;29.51
56719;BME280;42597;40.636;0.278;2023-05-02T12:59:02;97372.91;;;23.42;29.93
56719;BME280;42597;40.636;0.278;2023-05-02T13:01:31;97374.88;;;23.61;30.18
56719;BME280;42597;40.636;0.278;2023-05-02T13:03:57;97376.09;;;23.60;30.80
56719;BME280;42597;40.636;0.278;2023-05-02T13:06:23;97380.97;;;23.53;30.51
56719;BME280;42597;40.636;0.278;2023-05-02T13:08:48;97378.63;;;23.51;30.04
56719;BME280;42597;40.636;0.278;2023-05-02T13:11:14;97384.94;;;23.52;31.20
56719;BME280;42597;40.636;0.278;2023-05-02T13:13:40;97375.47;;;23.33;31.54
56719;BME280;42597;40.636;0.278;2023-05-02T13:16:06;97380.47;;;23.18;32.64
56719;BME280;42597;40.636;0.278;2023-05-02T13:18:32;97379.63;;;23.41;32.10
56719;BME280;42597;40.636;0.278;2023-05-02T13:20:57;97364.50;;;23.49;31.77
56719;BME280;42597;40.636;0.278;2023-05-02T13:23:23;97358.31;;;23.61;31.77
56719;BME280;42597;40.636;0.278;2023-05-02T13:25:48;97369.88;;;22.73;32.81
56719;BME280;42597;40.636;0.278;2023-05-02T13:28:14;97373.81;;;23.55;31.86
56719;BME280;42597;40.636;0.278;2023-05-02T13:30:40;97366.66;;;23.78;31.49
56719;BME280;42597;40.636;0.278;2023-05-02T13:33:05;97362.59;;;23.66;31.07
56719;BME280;42597;40.636;0.278;2023-05-02T13:35:31;97377.63;;;23.61;31.67
56719;BME280;42597;40.636;0.278;2023-05-02T13:37:56;97369.88;;;23.17;32.29
56719;BME280;42597;40.636;0.278;2023-05-02T13:40:22;97367.44;;;23.58;31.95
56719;BME280;42597;40.636;0.278;2023-05-02T13:42:47;97363.38;;;23.67;31.96